Tulare, CA

11:46 AM PDT on May 22, 2015 (GMT -0700)
Visalia Municipal | | Change Station
CLOSE
Current Station
Airport
Location: Visalia,
Elevation: 292 ft
Nearby Weather Stations

Elev 292 ft 36.32 °N, 119.39 °W | Updated 11 minutes ago

Overcast
Overcast
64 °F
Feels Like 64 °F
N
0
Wind Variable Wind from North

Today
High -- | Low -- °F
--% Chance of Precip.
Yesterday
High -- | Low -- °F
Precip. -- in
5:46 AM 8:02 PM
Waxing Crescent, 23% visible
Pressure 30.02 in
Visibility 9.0 miles
Clouds Scattered Clouds 7000 ft
Dew Point 46 °F
Humidity 52%
Rainfall 0.00 in
Snow Depth Not available.
UV 9 out of 12
Pollen 2.10 out of 12
Air Quality Not available.
Flu Activity Sporadic
METAR KVIS 221835Z AUTO 00000KT 9SM SCT070 18/08 A3002 RMK AO1

More Conditions Fewer Conditions

Pressure 30.02 in
Visibility 9.0 miles
Clouds Scattered Clouds 7000 ft
Dew Point 46 °F
Humidity 52%
Rainfall 0.00 in
Snow Depth Not available.
UV 9 out of 12
Pollen 2.10 out of 12
Air Quality Not available.
Flu Activity Sporadic
METAR KVIS 221835Z AUTO 00000KT 9SM SCT070 18/08 A3002 RMK AO1

More Conditions Fewer Conditions

10-Day Weather Forecast

Almanac

Astronomy

May. 22, 2015 Rise Set
Actual Time
Civil Twilight
Nautical Twilight
Astronomical Twilight
Moon
Length of Visible Light
Length of Day
Tomorrow will be .
, % of the Moon is Illuminated

Today's Extremes

State Highs State Lows

Community

WunderPhotos

Upload Photos

1,823,276 photos uploaded!

WunderBlogs® & News

Nearby

Air Quality

  Air Quality AQ Index Pollutant
Not available.

Snow Depth

Station Depth Elevation

Earthquake Activity

City Distance Mag. Time & Date
Minimum magnitude displayed is 2.5.

Coastal Water Temperatures

Place Temperature

Stations

Nearby Weather Stations

Station Location Temp. Windchill Dew Point Humidity Wind Precip. Elev Updated Type